Weather observations for the past three days for
Dickson Municipal Airport
Metric (Imperial)
Date Time (cdt) Wind (kph) Vis. (km) Weather Sky Cond. Temperature (ºC) Relative Humidity Wind Chill (°C) Heat Index (°C) Pressure Precipitation (cm)
Air Dwpt 6 hour altimeter (cm) sea level (mb) 1 hr 3 hr 6 hr
Max. Min.
31 12:35 W 13 G 22 16.09 NULL NULL 33 21 49% 36 76.56 0.0
31 12:15 Calm 16.09 NULL NULL 32 21 52% 35 76.58 0.0
31 11:55 Vrbl 9 16.09 NULL NULL 32 21 52% 35 76.58 0.0
31 11:35 SW 9 16.09 NULL NULL 31 22 59% 35 76.61 0.0
31 11:15 SW 13 16.09 NULL NULL 32 22 55% 36 76.61 0.0
31 10:55 Vrbl 9 16.09 NULL NULL 31 23 62% 35 76.61 0.0
31 10:35 SW 11 16.09 NULL NULL 31 22 59% 35 76.58 0.0
31 10:15 SW 15 16.09 NULL NULL 30 22 62% 33 76.58 0.0
31 09:55 SW 15 16.09 NULL NULL 30 23 66% 34 76.58 0.0
31 09:35 SW 13 16.09 NULL NULL 29 22 66% 32 76.56 0.0
31 09:15 SW 11 16.09 NULL NULL 29 22 66% 32 76.56 0.0
31 08:55 SW 13 16.09 NULL NULL 28 22 70% 31 76.56 0.0
31 08:35 S 13 16.09 NULL NULL 27 22 74% 29 76.56 0.0
31 08:15 S 9 16.09 NULL NULL 27 22 74% 29 76.56 0.0
31 07:55 S 11 16.09 NULL NULL 26 22 79% 28 76.53 0.0
31 07:35 S 13 16.09 NULL NULL 25 21 79% 26 76.5 0.0
31 07:15 S 13 16.09 NULL NULL 24 21 83% 24 76.5 0.0
31 06:55 S 9 16.09 NULL NULL 23 21 89% 76.5 0.0
31 06:35 Calm 16.09 NULL NULL 22 21 94% 76.5 0.0
31 06:20 Calm 16.09 NULL NULL 23 21 89% 76.5 0.0
31 05:55 S 7 16.09 Fair CLR 23 21 89% 76.48 0.0
31 05:15 S 7 16.09 Fair CLR 23 21 89% 76.43 0.0
31 04:50 S 7 16.09 Fair CLR 23 21 89% 76.43 0.0
31 04:35 S 7 16.09 Fair CLR 24 21 83% 24 76.43 0.0
31 04:15 S 7 16.09 Fair CLR 23 21 89% 76.4 0.0
31 03:55 S 9 16.09 Fair CLR 24 21 83% 24 76.4 0.0
31 03:35 S 7 16.09 Fair CLR 24 21 83% 24 76.4 0.0
31 03:15 S 9 16.09 Fair CLR 24 21 83% 24 76.4 0.0
31 02:55 S 9 16.09 Fair CLR 24 21 83% 24 76.38 0.0
31 02:35 S 6 16.09 Fair CLR 24 21 83% 24 76.4 0.0
31 02:15 S 7 16.09 Fair CLR 24 21 83% 24 76.4 0.0
31 01:55 Vrbl 7 16.09 Fair CLR 24 21 83% 24 76.4 0.0
31 01:35 S 7 16.09 Fair CLR 24 21 83% 24 76.4 0.0
31 01:15 S 7 16.09 Fair CLR 24 21 83% 24 76.43 0.0
31 00:55 S 7 16.09 Fair CLR 24 21 83% 24 76.43 0.0
31 00:35 S 6 16.09 Fair CLR 25 21 79% 26 76.43 0.0
31 00:15 S 7 16.09 Fair CLR 25 21 79% 26 76.43 0.0
30 23:55 Calm 16.09 Fair CLR 25 21 79% 26 76.43 0.0
30 23:35 S 6 16.09 Fair CLR 25 21 79% 26 76.4 0.0
30 23:15 Vrbl 6 16.09 Fair CLR 25 22 83% 26 76.43 0.0
30 22:55 S 6 16.09 Fair CLR 25 22 83% 26 76.43 0.0
30 22:35 Calm 16.09 Fair CLR 25 21 79% 26 76.43 0.0
30 22:15 Calm 16.09 Fair CLR 25 22 83% 26 76.43 0.0
30 21:55 Calm 16.09 Fair CLR 25 22 83% 26 76.43 0.0
30 21:35 Calm 16.09 Fair CLR 25 22 83% 26 76.43 0.0
30 21:15 Calm 16.09 Fair CLR 25 23 89% 26 76.4 0.0
30 20:55 Calm 16.09 Fair CLR 26 23 84% 28 76.4 0.0
30 20:35 Calm 16.09 Fair CLR 25 23 89% 26 76.38 0.0
30 20:15 Calm 16.09 Fair CLR 26 23 84% 28 76.35 0.0
30 19:55 Calm 16.09 A Few Clouds FEW095 27 23 79% 30 76.35 0.0
30 19:35 Calm 16.09 Mostly Cloudy BKN095 27 23 79% 30 76.35 0.0
30 19:15 Calm 16.09 Overcast OVC090 28 23 74% 31 76.35 0.0
30 18:55 Calm 16.09 Partly Cloudy SCT090 29 23 70% 33 76.35 0.0
30 18:35 Calm 16.09 Fair CLR 30 22 62% 33 76.35 0.0
30 18:15 Calm 16.09 Fair CLR 31 22 59% 35 76.35 0.0
30 17:55 SW 11 16.09 Fair CLR 31 22 59% 35 76.35 0.0
30 17:35 SW 9 16.09 Fair CLR 32 22 55% 36 76.35 0.0
30 17:15 SW 11 16.09 Fair CLR 32 21 52% 35 76.35 0.0
30 16:55 SW 9 16.09 Fair CLR 32 22 55% 36 76.35 0.0
30 16:35 SW 11 16.09 Fair CLR 33 22 52% 37 76.35 0.0
30 16:15 SW 11 G 22 16.09 Fair CLR 33 21 49% 36 76.35 0.0
30 15:55 Vrbl 9 16.09 Fair CLR 33 22 52% 37 76.35 0.0
30 15:35 SW 15 16.09 Fair CLR 33 22 52% 37 76.38 0.0
30 15:15 S 17 16.09 A Few Clouds FEW080 FEW100 33 22 52% 37 76.4 0.0
30 14:55 S 13 16.09 A Few Clouds FEW041 FEW070 33 22 52% 37 76.43 0.0
30 14:35 Vrbl 7 G 20 16.09 Mostly Cloudy BKN041 SCT055 BKN070 31 22 59% 35 76.43 0.0
30 14:15 S 15 16.09 Partly Cloudy SCT040 SCT050 32 22 55% 36 76.45 0.0
30 13:55 S 17 16.09 Partly Cloudy FEW046 FEW060 SCT090 33 22 52% 37 76.48 0.0
30 13:35 S 9 G 22 16.09 Mostly Cloudy FEW037 SCT046 BKN090 31 22 59% 35 76.48 0.0
30 13:15 Vrbl 11 G 20 16.09 Partly Cloudy SCT037 SCT044 SCT050 32 22 55% 36 76.5 0.0
30 12:55 SW 19 16.09 Partly Cloudy FEW036 SCT044 32 22 55% 36 76.5 0.0
30 12:35 Vrbl 11 G 26 16.09 Partly Cloudy FEW033 FEW038 SCT047 32 23 59% 37 76.53 0.0
30 12:15 S 13 G 22 16.09 Fair CLR 31 22 59% 35 76.53 0.0
30 11:55 S 17 16.09 A Few Clouds FEW029 FEW034 31 23 62% 35 76.53 0.0
30 11:35 S 13 16.09 A Few Clouds FEW028 31 23 62% 35 76.56 0.0
30 11:15 SW 17 16.09 Fair CLR 30 23 66% 34 76.56 0.0
30 10:55 SW 13 G 26 16.09 Fair CLR 30 23 66% 34 76.56 0.0
30 10:35 SW 13 G 22 16.09 Fair CLR 30 23 66% 34 76.56 0.0
30 10:15 SW 15 G 24 16.09 Fair CLR 29 22 66% 32 76.53 0.0
30 09:55 SW 15 16.09 Fair CLR 28 22 70% 31 76.56 0.0
30 09:35 SW 15 16.09 Fair CLR 28 22 70% 31 76.56 0.0
30 09:15 SW 17 16.09 Fair CLR 27 22 74% 29 76.56 0.0
30 08:55 SW 11 G 22 16.09 Fair CLR 27 22 74% 29 76.56 0.0
30 08:35 S 15 16.09 Fair CLR 26 22 79% 28 76.56 0.0
30 08:15 SW 15 16.09 Fair CLR 26 22 79% 28 76.53 0.0
30 07:55 S 13 16.09 Fair CLR 25 22 83% 26 76.53 0.0
30 07:35 S 9 16.09 Fair CLR 24 22 89% 24 76.53 0.0
30 07:15 S 13 16.09 Fair CLR 23 21 89% 76.5 0.0
30 06:55 Vrbl 6 16.09 Fair CLR 20 20 100% 76.5 0.0
30 06:35 Calm 14.48 Fair CLR 20 19 94% 76.48 0.0
30 06:15 Calm 16.09 Fair CLR 20 19 94% 76.45 0.0
30 05:55 Calm 16.09 Partly Cloudy FEW060 SCT070 20 19 94% 76.45 0.0
30 05:35 Calm 16.09 Mostly Cloudy FEW050 BKN070 20 19 94% 76.45 0.0
30 05:15 Calm 16.09 Partly Cloudy FEW050 SCT065 21 19 88% 76.45 0.0
30 04:55 S 6 16.09 Partly Cloudy SCT055 SCT070 20 19 94% 76.43 0.0
30 04:35 Calm 16.09 Partly Cloudy SCT060 SCT065 20 19 94% 76.43 0.0
30 04:15 Calm 16.09 Partly Cloudy SCT060 20 19 94% 76.43 0.0
30 03:55 Calm 16.09 Partly Cloudy FEW045 SCT055 SCT065 20 18 88% 76.43 0.0
30 03:35 Calm 16.09 Partly Cloudy FEW045 FEW055 SCT065 20 18 88% 76.43 0.0
30 03:15 Calm 16.09 Partly Cloudy FEW050 SCT060 19 18 94% 76.43 0.0
30 02:55 Calm 16.09 A Few Clouds FEW050 FEW055 FEW065 20 18 88% 76.43 0.0
30 02:35 Calm 16.09 Partly Cloudy SCT050 SCT055 SCT065 20 18 88% 76.45 0.0
30 02:15 Calm 16.09 Partly Cloudy SCT050 20 19 94% 76.43 0.0
30 01:55 Calm 16.09 A Few Clouds FEW055 20 18 88% 76.43 0.0
30 01:35 Calm 16.09 Fair CLR 20 18 88% 76.45 0.0
30 01:15 Calm 16.09 Fair CLR 20 18 88% 76.45 0.0
30 00:55 Calm 16.09 Fair CLR 21 18 83% 76.45 0.0
30 00:35 Calm 16.09 Fair CLR 20 18 88% 76.48 0.0
30 00:15 Calm 16.09 Fair CLR 21 19 88% 76.48 0.0
29 23:55 Calm 16.09 A Few Clouds FEW055 21 19 88% 76.45 0.0
29 23:35 Calm 16.09 Partly Cloudy SCT055 21 19 88% 76.45 0.0
29 23:15 Calm 16.09 A Few Clouds FEW055 22 19 83% 76.45 0.0
29 22:55 Calm 16.09 Partly Cloudy SCT060 22 19 83% 76.43 0.0
29 22:35 Calm 16.09 Partly Cloudy SCT060 22 19 83% 76.45 0.0
29 22:15 Calm 16.09 A Few Clouds FEW060 22 19 83% 76.43 0.0
29 21:55 Calm 16.09 Fair CLR 23 19 78% 76.43 0.0
29 21:35 Calm 16.09 Fair CLR 23 19 78% 76.43 0.0
29 21:15 Calm 16.09 Fair CLR 23 19 78% 76.43 0.0
29 20:50 Calm 16.09 Fair CLR 24 19 74% 25 76.4 0.0
29 20:35 Calm 16.09 Fair CLR 24 20 78% 24 76.4 0.0
29 20:15 Calm 16.09 Fair CLR 24 20 78% 24 76.38 0.0
29 19:55 Calm 16.09 Fair CLR 25 20 74% 26 76.35 0.0
29 19:35 Calm 16.09 Fair CLR 25 20 74% 26 76.35 0.0
29 19:15 Calm 16.09 Fair CLR 26 20 70% 27 76.35 0.0
29 18:55 Calm 16.09 Fair CLR 28 21 66% 30 76.35 0.0
29 18:35 N 6 16.09 Fair CLR 29 19 55% 30 76.35 0.0
29 18:15 NW 11 16.09 Fair CLR 30 19 52% 31 76.38 0.0
29 17:55 Calm 16.09 Fair CLR 31 17 43% 31 76.38 0.0
29 17:35 Calm 16.09 Fair CLR 31 17 43% 31 76.38 0.0
29 17:15 Calm 16.09 Fair CLR 31 18 46% 32 76.35 0.0
29 16:55 Calm 16.09 Fair CLR 31 17 43% 31 76.35 0.0
29 16:35 Calm 16.09 Fair CLR 31 16 40% 31 76.38 0.0
29 16:15 Calm 16.09 Fair CLR 31 17 43% 31 76.38 0.0
29 15:55 Calm 16.09 A Few Clouds FEW060 31 17 43% 31 76.4 0.0
29 15:35 Calm 16.09 A Few Clouds FEW060 32 17 41% 32 76.4 0.0
29 15:15 Calm 16.09 Fair CLR 31 17 43% 31 76.43 0.0
29 14:55 Vrbl 7 16.09 A Few Clouds FEW055 31 17 43% 31 76.43 0.0
29 14:35 Vrbl 6 16.09 Partly Cloudy SCT055 32 17 41% 32 76.45 0.0
29 14:15 Calm 14.48 Fair CLR 31 17 43% 31 76.45 0.0
29 13:55 NE 9 16.09 Partly Cloudy SCT050 31 18 46% 32 76.48 0.0
29 13:35 NE 9 16.09 Mostly Cloudy SCT050 BKN060 31 19 49% 32 76.48 0.0
29 13:15 N 11 16.09 Mostly Cloudy BKN055 BKN065 30 19 52% 31 76.5 0.0
29 12:55 N 11 16.09 Partly Cloudy SCT055 31 18 46% 32 76.5 0.0
29 12:35 Vrbl 7 16.09 Mostly Cloudy BKN050 31 18 46% 32 76.53 0.0
29 12:15 Vrbl 7 16.09 Fair CLR 30 18 49% 31 76.53 0.0
29 11:55 SE 9 16.09 Fair CLR 30 18 49% 31 76.56 0.0
29 11:35 N 11 16.09 Fair CLR 30 18 49% 31 76.56 0.0
29 11:15 NE 13 16.09 Fair CLR 30 19 52% 31 76.56 0.0
29 10:55 NE 11 16.09 Fair CLR 29 19 55% 30 76.58 0.0
29 10:35 Vrbl 7 16.09 Fair CLR 28 20 62% 30 76.58 0.0
29 10:15 Calm 16.09 Fair CLR 28 20 62% 30 76.56 0.0
29 09:55 Vrbl 6 16.09 Fair CLR 27 20 66% 29 76.56 0.0
29 09:35 Vrbl 7 16.09 Fair CLR 26 20 70% 27 76.56 0.0
29 09:15 E 11 16.09 Fair CLR 25 19 69% 26 76.56 0.0
29 08:55 Vrbl 7 16.09 Fair CLR 24 19 74% 25 76.56 0.0
29 08:35 Calm 16.09 Fair CLR 24 20 78% 24 76.53 0.0
29 08:15 Calm 16.09 Fair CLR 23 19 78% 76.53 0.0
29 07:55 Calm 16.09 Fair CLR 22 19 83% 76.53 0.0
29 07:35 Calm 16.09 Fair CLR 20 19 94% 76.5 0.0
29 07:15 Calm 16.09 Fair CLR 19 18 94% 76.5 0.0
29 06:55 Calm 16.09 Fair CLR 18 18 100% 76.5 0.0
29 06:35 Calm 16.09 Fair CLR 18 17 94% 76.48 0.0
29 06:15 Calm 16.09 A Few Clouds FEW060 18 18 100% 76.48 0.0
29 05:55 Calm 14.48 Mostly Cloudy FEW055 BKN065 18 17 94% 76.45 0.0
29 05:35 Calm 16.09 Overcast OVC060 19 18 94% 76.45 0.0
29 05:15 Calm 16.09 Mostly Cloudy FEW048 BKN060 19 18 94% 76.45 0.0
29 04:55 Calm 16.09 Mostly Cloudy BKN060 19 18 94% 76.45 0.0
29 04:35 Calm 16.09 Mostly Cloudy BKN055 19 18 94% 76.45 0.0
29 04:15 Calm 16.09 Mostly Cloudy BKN060 19 18 94% 76.45 0.0
29 03:55 Calm 16.09 Mostly Cloudy BKN060 20 18 88% 76.45 0.0
29 03:35 Calm 16.09 Overcast OVC060 19 17 88% 76.45 0.0
29 03:15 NE 7 16.09 Overcast OVC060 20 17 83% 76.45 0.0
29 02:55 Calm 16.09 Mostly Cloudy BKN060 20 17 83% 76.45 0.0
29 02:35 NE 9 16.09 Mostly Cloudy BKN060 20 17 83% 76.43 0.0
29 02:15 NE 6 16.09 Overcast BKN055 OVC065 20 17 83% 76.43 0.0
29 01:55 Calm 16.09 Mostly Cloudy BKN060 21 17 78% 76.43 0.0
29 01:35 NE 7 16.09 Mostly Cloudy BKN060 BKN065 21 17 78% 76.43 0.0
29 01:15 NE 9 16.09 Mostly Cloudy BKN055 BKN065 21 17 78% 76.43 0.0
29 00:55 NE 9 16.09 Mostly Cloudy BKN060 21 17 78% 76.45 0.0
29 00:35 NE 7 16.09 Mostly Cloudy BKN060 21 18 83% 76.45 0.0
29 00:15 NE 9 16.09 Mostly Cloudy BKN060 21 18 83% 76.45 0.0
28 23:55 NE 7 16.09 Partly Cloudy SCT060 SCT070 21 18 83% 76.45 0.0
28 23:35 Calm 16.09 Partly Cloudy SCT050 SCT070 22 18 78% 76.45 0.0
28 23:15 NE 7 16.09 Mostly Cloudy SCT055 BKN065 22 18 78% 76.43 0.0
28 22:55 Calm 16.09 Partly Cloudy FEW050 SCT065 22 19 83% 76.43 0.0
28 22:35 Calm 16.09 Partly Cloudy SCT060 SCT070 22 19 83% 76.43 0.0
28 22:15 N 7 16.09 Partly Cloudy SCT060 22 19 83% 76.43 0.0
28 21:55 N 7 16.09 Partly Cloudy SCT060 22 19 83% 76.43 0.0
28 21:35 N 9 16.09 Mostly Cloudy SCT060 BKN070 22 19 83% 76.43 0.0
28 21:15 N 9 16.09 Partly Cloudy SCT060 22 19 83% 76.4 0.0
28 20:55 N 9 16.09 A Few Clouds FEW060 22 19 83% 76.38 0.0
28 20:35 N 6 16.09 Fair CLR 22 19 83% 76.38 0.0
28 20:15 NW 7 16.09 Fair CLR 23 19 78% 76.35 0.0
28 19:55 Calm 16.09 Fair CLR 23 19 78% 76.35 0.0
28 19:35 NW 6 16.09 Fair CLR 24 20 78% 24 76.33 0.0
28 19:15 Calm 16.09 Fair CLR 25 19 69% 26 76.33 0.0
28 18:55 N 7 16.09 Fair CLR 26 19 65% 27 76.33 0.0
28 18:35 N 9 16.09 Fair CLR 27 18 58% 28 76.3 0.0
28 18:15 N 11 16.09 Fair CLR 28 18 55% 29 76.3 0.0
28 17:55 N 7 16.09 Fair CLR 28 18 55% 29 76.3 0.0
28 17:35 N 9 16.09 A Few Clouds FEW080 29 17 48% 29 76.3 0.0
28 17:15 NE 7 16.09 A Few Clouds FEW055 FEW080 29 17 48% 29 76.33 0.0
28 16:50 Vrbl 7 16.09 Mostly Cloudy BKN055 BKN080 30 17 46% 30 76.33 0.0
28 16:35 N 6 16.09 A Few Clouds FEW060 FEW070 30 16 43% 30 76.33 0.0
28 16:15 N 11 16.09 Partly Cloudy SCT055 SCT070 30 15 40% 30 76.33 0.0
28 15:55 NW 11 16.09 A Few Clouds FEW060 FEW070 30 16 43% 30 76.35 0.0
28 15:35 N 9 16.09 Fair CLR 30 15 40% 30 76.35 0.0
28 15:15 Vrbl 9 G 22 16.09 A Few Clouds FEW060 30 17 46% 30 76.35 0.0
28 14:55 Vrbl 9 16.09 Partly Cloudy SCT060 30 17 46% 30 76.35 0.0
28 14:35 NE 6 G 19 16.09 Partly Cloudy SCT050 SCT070 28 18 55% 29 76.38 0.0
28 14:15 Vrbl 7 16.09 Partly Cloudy SCT050 SCT070 30 17 46% 30 76.4 0.0
28 13:55 N 15 16.09 Mostly Cloudy BKN050 BKN055 29 17 48% 29 76.4 0.0
28 13:35 Vrbl 7 G 19 16.09 Fair CLR 30 16 43% 30 76.43 0.0
28 13:15 N 9 16.09 Partly Cloudy FEW048 SCT055 29 17 48% 29 76.43 0.0
28 12:55 N 7 16.09 Mostly Cloudy SCT047 BKN055 BKN065 27 18 58% 28 76.45 0.0
Date Time (cdt) Wind (kph) Vis. (km) Weather Sky Cond. Air Dwpt Max. Min. Relative Humidity Wind Chill (°C) Heat Index (°C) altimeter (cm) sea level (mb) 1 hr 3 hr 6 hr
6 hour
Temperature (ºC) Pressure Precipitation (cm)